Time;durP1;ratioP1;P1;durP2;ratioP2;P2;SDS_P1;SDS_P2;PMS_P1;PMS_P2;Temp;Humidity;BMP_temperature;BMP_pressure;BME280_temperature;BME280_humidity;BME280_pressure;Samples;Min_cycle;Max_cycle;Signal;HPM_P1;HPM_P2
2023/12/17 00:00:41;;;;;;;0.30;0.30;;;;;;;7.83;100.00;103662.47;5115175;28;20027;-50
2023/12/17 00:03:06;;;;;;;0.30;0.30;;;;;;;7.86;100.00;103664.41;5114355;28;20115;-49
2023/12/17 00:05:31;;;;;;;0.30;0.30;;;;;;;7.85;100.00;103660.94;5115006;28;20023;-49
2023/12/17 00:07:56;;;;;;;0.30;0.30;;;;;;;7.87;100.00;103663.66;5115014;28;20027;-49
2023/12/17 00:10:22;;;;;;;0.22;0.22;;;;;;;7.87;100.00;103666.22;5113993;28;20024;-47
2023/12/17 00:12:47;;;;;;;0.30;0.30;;;;;;;7.87;100.00;103664.53;5115123;28;20020;-47
2023/12/17 00:15:12;;;;;;;0.28;0.28;;;;;;;7.88;100.00;103660.31;5114736;28;20026;-49
2023/12/17 00:17:38;;;;;;;0.30;0.30;;;;;;;7.88;100.00;103645.78;5114114;28;20031;-49
2023/12/17 00:20:03;;;;;;;0.20;0.20;;;;;;;7.87;100.00;103654.25;5115101;28;20532;-48
2023/12/17 00:22:28;;;;;;;0.30;0.30;;;;;;;7.88;100.00;103653.50;5114769;28;20384;-45
2023/12/17 00:24:54;;;;;;;0.30;0.30;;;;;;;7.89;100.00;103641.59;5113984;28;20027;-49
2023/12/17 00:27:19;;;;;;;0.20;0.20;;;;;;;7.89;100.00;103642.47;5114455;28;20049;-47
2023/12/17 00:29:44;;;;;;;0.30;0.30;;;;;;;7.89;100.00;103632.19;5114664;28;20106;-49
2023/12/17 00:32:10;;;;;;;0.30;0.30;;;;;;;7.89;100.00;103627.06;5113581;28;20049;-47
2023/12/17 00:34:35;;;;;;;0.30;0.30;;;;;;;7.90;100.00;103639.13;5114537;28;20051;-48
2023/12/17 00:37:00;;;;;;;0.30;0.30;;;;;;;7.90;100.00;103634.00;5114755;28;20118;-50
2023/12/17 00:39:26;;;;;;;0.30;0.30;;;;;;;7.93;100.00;103632.44;5113604;28;20378;-49
2023/12/17 00:41:51;;;;;;;0.25;0.25;;;;;;;7.94;100.00;103634.25;5114752;28;20028;-49
2023/12/17 00:44:16;;;;;;;0.20;0.20;;;;;;;7.93;100.00;103628.22;5114004;28;20106;-46
2023/12/17 00:46:42;;;;;;;0.20;0.20;;;;;;;7.94;100.00;103629.09;5112638;28;20048;-47
2023/12/17 00:49:07;;;;;;;0.20;0.20;;;;;;;7.94;100.00;103629.09;5114307;28;20023;-50
2023/12/17 00:51:34;;;;;;;0.30;0.30;;;;;;;7.95;100.00;103630.91;5113987;28;20027;-48
2023/12/17 00:53:59;;;;;;;0.25;0.25;;;;;;;7.94;100.00;103627.47;5113900;28;20032;-49
2023/12/17 00:56:24;;;;;;;0.30;0.30;;;;;;;7.95;100.00;103620.66;5113983;28;20502;-50
2023/12/17 00:58:49;;;;;;;0.30;0.30;;;;;;;7.94;100.00;103619.75;5113419;28;20455;-48
2023/12/17 01:01:15;;;;;;;0.20;0.20;;;;;;;7.94;100.00;103618.84;5113924;28;20024;-50
2023/12/17 01:03:40;;;;;;;0.20;0.20;;;;;;;7.94;100.00;103611.13;5114016;28;20827;-50
2023/12/17 01:06:06;;;;;;;0.20;0.20;;;;;;;7.94;100.00;103598.28;5113330;28;20078;-48
2023/12/17 01:08:32;;;;;;;0.20;0.20;;;;;;;7.93;100.00;103599.97;5113859;28;20090;-48
2023/12/17 01:10:57;;;;;;;0.20;0.20;;;;;;;7.94;100.00;103603.44;5114097;28;20099;-48
2023/12/17 01:13:22;;;;;;;0.20;0.20;;;;;;;7.95;100.00;103595.84;5112754;28;20107;-47
2023/12/17 01:15:47;;;;;;;0.30;0.30;;;;;;;7.93;100.00;103594.84;5113835;28;20475;-48
2023/12/17 01:18:13;;;;;;;0.30;0.30;;;;;;;7.94;100.00;103599.22;5113620;28;20031;-49
2023/12/17 01:20:38;;;;;;;0.22;0.22;;;;;;;7.94;100.00;103598.28;5112848;28;20072;-47
2023/12/17 01:23:03;;;;;;;0.22;0.22;;;;;;;7.94;100.00;103598.28;5113567;28;20023;-50
2023/12/17 01:25:28;;;;;;;0.20;0.20;;;;;;;7.93;100.00;103605.13;5113455;28;20494;-46
2023/12/17 01:27:54;;;;;;;0.20;0.20;;;;;;;7.93;100.00;103617.97;5112891;28;20498;-48
2023/12/17 01:30:19;;;;;;;0.30;0.30;;;;;;;7.94;100.00;103634.25;5113262;28;20026;-48
2023/12/17 01:32:45;;;;;;;0.20;0.20;;;;;;;7.93;100.00;103632.44;5113492;28;20031;-49
2023/12/17 01:35:10;;;;;;;0.30;0.30;;;;;;;7.96;100.00;103643.00;5112702;28;20031;-47
2023/12/17 01:37:35;;;;;;;0.20;0.20;;;;;;;7.95;100.00;103636.06;5113542;28;20024;-50
2023/12/17 01:40:01;;;;;;;0.30;0.30;;;;;;;7.95;100.00;103620.66;5113500;28;20094;-49
2023/12/17 01:42:26;;;;;;;0.30;0.30;;;;;;;7.95;100.00;103625.78;5112442;28;20034;-49
2023/12/17 01:44:51;;;;;;;0.30;0.30;;;;;;;7.96;100.00;103628.47;5113205;28;20028;-50
2023/12/17 01:47:17;;;;;;;0.20;0.20;;;;;;;7.96;100.00;103630.16;5112949;28;20016;-50
2023/12/17 01:49:42;;;;;;;0.30;0.30;;;;;;;7.96;100.00;103637.84;5112701;28;20417;-48
2023/12/17 01:52:08;;;;;;;0.20;0.20;;;;;;;7.96;100.00;103631.03;5113315;28;20038;-49
2023/12/17 01:54:34;;;;;;;0.38;0.38;;;;;;;7.96;100.00;103637.84;5112749;28;20503;-49
2023/12/17 01:57:00;;;;;;;0.30;0.30;;;;;;;7.95;100.00;103643.75;5112885;28;20034;-49
2023/12/17 01:59:26;;;;;;;0.30;0.30;;;;;;;7.95;100.00;103642.06;5112733;28;20378;-49
2023/12/17 02:01:52;;;;;;;0.28;0.28;;;;;;;7.95;100.00;103651.47;5113022;28;20046;-49
2023/12/17 02:04:20;;;;;;;0.30;0.30;;;;;;;7.94;100.00;103652.22;5112580;28;20081;-49
2023/12/17 02:06:45;;;;;;;;;;;;;;;8.04;100.00;103645.47;5113698;28;20062;-48
2023/12/17 02:09:11;;;;;;;0.30;0.30;;;;;;;7.97;100.00;103644.81;5111712;28;19951;-48
2023/12/17 02:11:36;;;;;;;0.30;0.30;;;;;;;7.97;100.00;103642.22;5113173;28;20467;-46
2023/12/17 02:14:01;;;;;;;0.25;0.25;;;;;;;7.98;100.00;103649.16;5113273;28;20061;-48
2023/12/17 02:16:26;;;;;;;0.30;0.30;;;;;;;7.96;100.00;103643.00;5112047;28;20059;-50
2023/12/17 02:18:52;;;;;;;0.22;0.22;;;;;;;7.95;100.00;103636.06;5113313;28;20011;-48
2023/12/17 02:21:17;;;;;;;0.20;0.20;;;;;;;7.94;100.00;103639.38;5112784;28;20031;-49
2023/12/17 02:23:42;;;;;;;0.30;0.30;;;;;;;7.94;100.00;103630.03;5112441;28;20053;-49
2023/12/17 02:26:07;;;;;;;0.30;0.30;;;;;;;7.95;100.00;103628.34;5112969;28;20028;-47
2023/12/17 02:28:33;;;;;;;0.30;0.30;;;;;;;7.94;100.00;103624.91;5112631;28;20022;-48
2023/12/17 02:30:58;;;;;;;0.30;0.30;;;;;;;7.93;100.00;103633.38;5112120;28;20035;-47
2023/12/17 02:33:23;;;;;;;0.30;0.30;;;;;;;7.93;100.00;103633.38;5112162;28;20031;-47
2023/12/17 02:35:49;;;;;;;0.20;0.20;;;;;;;7.93;100.00;103627.31;5113114;28;20035;-47
2023/12/17 02:38:14;;;;;;;0.30;0.30;;;;;;;7.93;100.00;103633.38;5111892;28;20024;-49
2023/12/17 02:40:41;;;;;;;0.20;0.20;;;;;;;7.91;100.00;103638.38;5113117;28;20031;-49
2023/12/17 02:43:07;;;;;;;0.30;0.30;;;;;;;7.93;100.00;103637.56;5112942;28;20161;-47
2023/12/17 02:45:32;;;;;;;0.20;0.20;;;;;;;7.90;100.00;103631.44;5111525;28;20115;-47
2023/12/17 02:47:57;;;;;;;0.20;0.20;;;;;;;7.90;100.00;103633.09;5112824;28;20031;-50
2023/12/17 02:50:22;;;;;;;0.30;0.30;;;;;;;7.90;100.00;103627.94;5112602;28;20035;-49
2023/12/17 02:52:48;;;;;;;0.30;0.30;;;;;;;7.89;100.00;103632.19;5111919;28;20051;-48
2023/12/17 02:55:14;;;;;;;0.20;0.20;;;;;;;7.89;100.00;103632.19;5112501;28;20459;-48
2023/12/17 02:57:40;;;;;;;0.20;0.20;;;;;;;7.88;100.00;103625.25;5112512;28;20036;-48
2023/12/17 03:00:05;;;;;;;0.30;0.30;;;;;;;7.88;100.00;103625.25;5112132;28;20022;-49
2023/12/17 03:02:31;;;;;;;0.20;0.20;;;;;;;7.88;100.00;103624.38;5112621;28;20089;-49
2023/12/17 03:04:58;;;;;;;0.30;0.30;;;;;;;7.88;100.00;103632.97;5112378;28;20027;-48
2023/12/17 03:07:23;;;;;;;0.20;0.20;;;;;;;7.87;100.00;103626.00;5111897;28;20030;-49
2023/12/17 03:09:49;;;;;;;0.30;0.30;;;;;;;7.87;100.00;103623.44;5113181;28;20031;-48
2023/12/17 03:12:14;;;;;;;0.30;0.30;;;;;;;7.85;100.00;103609.59;5115624;28;20382;-49
2023/12/17 03:14:40;;;;;;;0.30;0.30;;;;;;;7.86;100.00;103605.34;5115588;28;20012;-49
2023/12/17 03:17:05;;;;;;;0.20;0.20;;;;;;;7.85;100.00;103608.69;5116181;28;20047;-48
2023/12/17 03:19:31;;;;;;;0.30;0.30;;;;;;;7.84;100.00;103607.78;5115023;28;20034;-49
2023/12/17 03:21:56;;;;;;;0.30;0.30;;;;;;;7.85;100.00;103606.13;5116259;28;20032;-49
2023/12/17 03:24:21;;;;;;;0.20;0.20;;;;;;;7.85;100.00;103604.47;5115609;28;20028;-49
2023/12/17 03:26:46;;;;;;;0.30;0.30;;;;;;;7.85;100.00;103599.31;5115157;28;20032;-50
2023/12/17 03:29:12;;;;;;;0.30;0.30;;;;;;;7.85;100.00;103599.31;5115472;28;20073;-49
2023/12/17 03:31:37;;;;;;;0.20;0.20;;;;;;;7.84;100.00;103594.94;5116121;28;20045;-49
2023/12/17 03:34:02;;;;;;;0.20;0.20;;;;;;;7.84;100.00;103592.38;5115211;28;20447;-48
2023/12/17 03:36:28;;;;;;;0.30;0.30;;;;;;;7.84;100.00;103597.53;5115582;28;20027;-50
2023/12/17 03:38:53;;;;;;;0.20;0.20;;;;;;;7.83;100.00;103595.72;5115842;28;20515;-50
2023/12/17 03:41:22;;;;;;;0.20;0.20;;;;;;;7.84;100.00;103601.78;5114620;28;20035;-50
2023/12/17 03:43:56;;;;;;;0.20;0.20;;;;;;;7.83;100.00;103598.28;5115573;28;20388;-48
2023/12/17 03:46:25;;;;;;;0.20;0.20;;;;;;;7.82;100.00;103595.59;5114988;28;20395;-49
2023/12/17 03:48:51;;;;;;;0.30;0.30;;;;;;;7.80;100.00;103595.47;5114967;28;20482;-49
2023/12/17 03:51:16;;;;;;;0.30;0.30;;;;;;;7.80;100.00;103587.75;5115154;28;20026;-48
2023/12/17 03:53:42;;;;;;;0.30;0.30;;;;;;;7.80;100.00;103582.63;5115370;28;20027;-49
2023/12/17 03:56:12;;;;;;;0.30;0.30;;;;;;;7.79;100.00;103587.66;5114891;28;20027;-48
2023/12/17 03:58:38;;;;;;;0.30;0.30;;;;;;;7.79;100.00;103585.97;5115345;28;20348;-49
2023/12/17 04:01:05;;;;;;;0.30;0.30;;;;;;;7.79;100.00;103582.50;5115272;28;20030;-49
2023/12/17 04:03:30;;;;;;;0.30;0.30;;;;;;;7.79;100.00;103572.25;5114165;28;20072;-50
2023/12/17 04:06:00;;;;;;;0.25;0.25;;;;;;;7.78;100.00;103570.44;5115194;28;20023;-47
2023/12/17 04:08:26;;;;;;;0.30;0.30;;;;;;;7.76;100.00;103565.19;5114672;28;20035;-48
2023/12/17 04:10:51;;;;;;;0.30;0.30;;;;;;;7.76;100.00;103567.75;5114618;28;20084;-48
2023/12/17 04:13:17;;;;;;;0.30;0.30;;;;;;;7.75;100.00;103564.25;5114701;28;20352;-47
2023/12/17 04:15:42;;;;;;;0.30;0.30;;;;;;;7.74;100.00;103559.88;5114518;28;20398;-48
2023/12/17 04:18:07;;;;;;;0.20;0.20;;;;;;;7.74;100.00;103569.25;5115149;28;20028;-48
2023/12/17 04:20:33;;;;;;;0.30;0.30;;;;;;;7.74;100.00;103566.69;5114780;28;20023;-49
2023/12/17 04:22:58;;;;;;;0.30;0.30;;;;;;;7.73;100.00;103562.31;5114171;28;20469;-49
2023/12/17 04:25:25;;;;;;;0.20;0.20;;;;;;;7.72;100.00;103560.53;5114605;28;20051;-49
2023/12/17 04:27:50;;;;;;;0.30;0.30;;;;;;;7.72;100.00;103560.53;5114264;28;20102;-49
2023/12/17 04:30:15;;;;;;;0.25;0.25;;;;;;;7.72;100.00;103555.38;5113564;28;20107;-49
2023/12/17 04:32:41;;;;;;;0.20;0.20;;;;;;;7.73;100.00;103557.19;5114888;28;20031;-50
2023/12/17 04:35:06;;;;;;;0.30;0.30;;;;;;;7.71;100.00;103556.19;5114613;28;20031;-48
2023/12/17 04:37:32;;;;;;;0.30;0.30;;;;;;;7.70;100.00;103551.81;5113505;28;20028;-49
2023/12/17 04:39:57;;;;;;;0.22;0.22;;;;;;;7.70;100.00;103552.69;5114568;28;20528;-48
2023/12/17 04:42:22;;;;;;;0.30;0.30;;;;;;;7.68;100.00;103550.78;5114068;28;20026;-47
2023/12/17 04:44:47;;;;;;;0.22;0.22;;;;;;;7.67;100.00;103546.41;5113705;28;20532;-49
2023/12/17 04:47:13;;;;;;;0.30;0.30;;;;;;;7.67;100.00;103554.09;5114268;28;20084;-49
2023/12/17 04:49:38;;;;;;;0.30;0.30;;;;;;;7.65;100.00;103548.84;5114498;28;20027;-48
2023/12/17 04:52:04;;;;;;;0.30;0.30;;;;;;;7.64;100.00;103558.97;5113615;28;20586;-49
2023/12/17 04:54:29;;;;;;;0.30;0.30;;;;;;;7.64;100.00;103551.28;5113848;28;20100;-48
2023/12/17 04:56:55;;;;;;;0.30;0.30;;;;;;;7.62;100.00;103556.28;5113953;28;20475;-47
2023/12/17 04:59:23;;;;;;;0.22;0.22;;;;;;;7.60;100.00;103550.13;5113503;28;20421;-49
2023/12/17 05:01:49;;;;;;;0.30;0.30;;;;;;;7.62;100.00;103550.25;5107576;28;20020;-49
2023/12/17 05:04:15;;;;;;;0.30;0.30;;;;;;;7.61;100.00;103545.91;5092566;28;20422;-50
2023/12/17 05:06:41;;;;;;;0.22;0.22;;;;;;;7.61;100.00;103545.91;5092988;28;20020;-47
2023/12/17 05:09:06;;;;;;;0.30;0.30;;;;;;;7.57;100.00;103535.34;5093767;28;20028;-48
2023/12/17 05:11:32;;;;;;;0.20;0.20;;;;;;;7.56;100.00;103541.25;5093028;28;20031;-49
2023/12/17 05:13:57;;;;;;;0.30;0.30;;;;;;;7.55;100.00;103542.03;5093259;28;20023;-49
2023/12/17 05:16:22;;;;;;;0.30;0.30;;;;;;;7.53;100.00;103538.44;5093145;28;20059;-48
2023/12/17 05:18:47;;;;;;;0.40;0.40;;;;;;;7.52;100.00;103546.00;5093315;28;20032;-49
2023/12/17 05:21:13;;;;;;;0.30;0.30;;;;;;;7.51;100.00;103554.47;5092610;28;20024;-48
2023/12/17 05:23:38;;;;;;;0.30;0.30;;;;;;;7.51;100.00;103552.78;5093384;28;20032;-50
2023/12/17 05:26:03;;;;;;;0.20;0.20;;;;;;;7.50;100.00;103557.78;5092379;28;20472;-49
2023/12/17 05:28:29;;;;;;;0.30;0.30;;;;;;;7.48;100.00;103554.22;5093177;28;20138;-48
2023/12/17 05:30:54;;;;;;;0.20;0.20;;;;;;;7.47;100.00;103548.16;5093496;28;20025;-49
2023/12/17 05:33:19;;;;;;;0.20;0.20;;;;;;;7.46;100.00;103556.63;5091742;28;20079;-49
2023/12/17 05:35:45;;;;;;;0.30;0.30;;;;;;;7.46;100.00;103555.75;5093171;28;20032;-50
2023/12/17 05:38:10;;;;;;;0.20;0.20;;;;;;;7.44;100.00;103553.06;5093041;28;20028;-46
2023/12/17 05:40:36;;;;;;;0.30;0.30;;;;;;;7.42;100.00;103549.44;5092255;28;20024;-46
2023/12/17 05:43:03;;;;;;;0.20;0.20;;;;;;;7.41;100.00;103546.00;5093314;28;20024;-50
2023/12/17 05:45:30;;;;;;;0.30;0.30;;;;;;;7.41;100.00;103547.63;5092700;28;20036;-48
2023/12/17 05:47:55;;;;;;;0.30;0.30;;;;;;;7.40;100.00;103548.44;5091720;28;20560;-48
2023/12/17 05:50:21;;;;;;;0.30;0.30;;;;;;;7.40;100.00;103545.88;5092659;28;20028;-49
2023/12/17 05:52:46;;;;;;;0.30;0.30;;;;;;;7.38;100.00;103542.25;5093016;28;20479;-48
2023/12/17 05:55:11;;;;;;;0.30;0.30;;;;;;;7.37;100.00;103545.56;5091884;28;20020;-49
2023/12/17 05:57:37;;;;;;;0.30;0.30;;;;;;;7.37;100.00;103537.88;5093174;28;20024;-49
2023/12/17 06:00:02;;;;;;;0.30;0.30;;;;;;;7.38;100.00;103539.69;5092846;28;20059;-48
2023/12/17 06:02:27;;;;;;;0.30;0.30;;;;;;;7.36;100.00;103534.44;5092321;28;20035;-47
2023/12/17 06:04:53;;;;;;;0.25;0.25;;;;;;;7.37;100.00;103540.44;5092719;28;20464;-46
2023/12/17 06:07:18;;;;;;;0.28;0.28;;;;;;;7.36;100.00;103546.34;5092426;28;20064;-47
2023/12/17 06:09:43;;;;;;;0.30;0.30;;;;;;;7.34;100.00;103541.09;5091868;28;20498;-47
2023/12/17 06:12:08;;;;;;;0.30;0.30;;;;;;;7.32;100.00;103536.59;5092978;28;20373;-50
2023/12/17 06:14:34;;;;;;;0.30;0.30;;;;;;;7.32;100.00;103541.72;5092300;28;20115;-49
2023/12/17 06:17:00;;;;;;;0.30;0.30;;;;;;;7.30;100.00;103541.59;5092469;28;20567;-51
2023/12/17 06:19:25;;;;;;;0.30;0.30;;;;;;;7.30;100.00;103540.72;5092470;28;20479;-48
2023/12/17 06:21:50;;;;;;;0.22;0.22;;;;;;;7.28;100.00;103539.66;5092605;28;20032;-48
2023/12/17 06:24:15;;;;;;;0.20;0.20;;;;;;;7.26;100.00;103536.97;5091756;28;20099;-47
2023/12/17 06:26:41;;;;;;;0.30;0.30;;;;;;;7.23;100.00;103537.59;5092812;28;20054;-48
2023/12/17 06:29:12;;;;;;;0.30;0.30;;;;;;;7.22;100.00;103537.47;5092521;28;20066;-49
2023/12/17 06:31:38;;;;;;;0.30;0.30;;;;;;;7.20;100.00;103550.13;5092167;28;20031;-47
2023/12/17 06:34:03;;;;;;;0.30;0.30;;;;;;;7.19;100.00;103550.94;5092491;28;20036;-48
2023/12/17 06:36:28;;;;;;;0.30;0.30;;;;;;;7.18;100.00;103541.44;5091499;28;20064;-47
2023/12/17 06:38:54;;;;;;;0.20;0.20;;;;;;;7.17;100.00;103546.44;5092454;28;20021;-49
2023/12/17 06:41:19;;;;;;;0.28;0.28;;;;;;;7.16;100.00;103549.75;5092441;28;20031;-49
2023/12/17 06:43:44;;;;;;;0.30;0.30;;;;;;;7.15;100.00;103553.97;5091950;28;20056;-48
2023/12/17 06:46:15;;;;;;;0.30;0.30;;;;;;;7.14;100.00;103552.19;5094504;28;20056;-48
2023/12/17 06:48:41;;;;;;;0.30;0.30;;;;;;;7.12;100.00;103543.47;5096389;28;20036;-50
2023/12/17 06:51:07;;;;;;;0.30;0.30;;;;;;;7.11;100.00;103544.22;5095557;28;20069;-49
2023/12/17 06:53:32;;;;;;;0.30;0.30;;;;;;;7.09;100.00;103543.19;5095968;28;20483;-49
2023/12/17 06:55:57;;;;;;;0.30;0.30;;;;;;;7.09;100.00;103538.06;5095777;28;20040;-47
2023/12/17 06:58:23;;;;;;;0.30;0.30;;;;;;;7.09;100.00;103533.84;5095262;28;20487;-46
2023/12/17 07:00:48;;;;;;;0.30;0.30;;;;;;;7.09;100.00;103538.06;5096130;28;20376;-47
2023/12/17 07:03:18;;;;;;;0.30;0.30;;;;;;;7.07;100.00;103540.47;5095559;28;20062;-48
2023/12/17 07:05:44;;;;;;;0.30;0.30;;;;;;;7.08;100.00;103534.59;5095278;28;20032;-48
2023/12/17 07:08:09;;;;;;;0.30;0.30;;;;;;;7.08;100.00;103524.34;5095581;28;20036;-45
2023/12/17 07:10:34;;;;;;;0.30;0.30;;;;;;;7.08;100.00;103537.16;5095833;28;20024;-49
2023/12/17 07:12:59;;;;;;;0.30;0.30;;;;;;;7.08;100.00;103542.28;5095361;28;20379;-49
2023/12/17 07:15:25;;;;;;;0.30;0.30;;;;;;;7.08;100.00;103533.69;5095699;28;20028;-46
2023/12/17 07:17:51;;;;;;;0.30;0.30;;;;;;;7.09;100.00;103548.34;5095681;28;20028;-44
2023/12/17 07:20:16;;;;;;;0.30;0.30;;;;;;;7.08;100.00;103541.41;5094856;28;20040;-49
2023/12/17 07:22:42;;;;;;;0.30;0.30;;;;;;;7.06;100.00;103543.84;5095608;28;20024;-49
2023/12/17 07:25:08;;;;;;;0.30;0.30;;;;;;;7.08;100.00;103554.22;5095444;28;20043;-49
2023/12/17 07:27:33;;;;;;;0.30;0.30;;;;;;;7.05;100.00;103551.38;5094582;28;20078;-49
2023/12/17 07:29:58;;;;;;;0.30;0.30;;;;;;;7.04;100.00;103549.59;5095474;28;20034;-48
2023/12/17 07:32:23;;;;;;;0.30;0.30;;;;;;;7.02;100.00;103551.09;5094985;28;20031;-46
2023/12/17 07:34:49;;;;;;;0.30;0.30;;;;;;;7.02;100.00;103551.09;5094847;28;20380;-48
2023/12/17 07:37:14;;;;;;;0.30;0.30;;;;;;;7.02;100.00;103553.69;5094925;28;20379;-49
2023/12/17 07:39:39;;;;;;;0.20;0.20;;;;;;;7.01;100.00;103549.31;5094479;28;20032;-46
2023/12/17 07:42:05;;;;;;;0.30;0.30;;;;;;;7.01;100.00;103557.00;5094951;28;20016;-48
2023/12/17 07:44:30;;;;;;;0.30;0.30;;;;;;;7.01;100.00;103567.25;5094797;28;20032;-48
2023/12/17 07:46:56;;;;;;;0.30;0.30;;;;;;;7.00;100.00;103565.47;5094122;28;20040;-48
2023/12/17 07:49:22;;;;;;;0.25;0.25;;;;;;;7.00;100.00;103563.81;5094773;28;20024;-47
2023/12/17 07:51:48;;;;;;;0.30;0.30;;;;;;;7.01;100.00;103564.69;5094709;28;20032;-48
2023/12/17 07:54:13;;;;;;;0.28;0.28;;;;;;;7.00;100.00;103561.25;5093772;28;20427;-49
2023/12/17 07:56:39;;;;;;;0.30;0.30;;;;;;;7.01;100.00;103562.13;5094621;28;20511;-49
2023/12/17 07:59:04;;;;;;;0.30;0.30;;;;;;;7.02;100.00;103566.50;5095186;28;20020;-46
2023/12/17 08:01:31;;;;;;;0.30;0.30;;;;;;;7.02;100.00;103566.50;5093772;28;20420;-46
2023/12/17 08:03:57;;;;;;;0.30;0.30;;;;;;;7.02;100.00;103571.63;5094947;28;20020;-47
2023/12/17 08:06:22;;;;;;;0.30;0.30;;;;;;;7.03;100.00;103565.75;5094785;28;20020;-46
2023/12/17 08:08:47;;;;;;;0.30;0.30;;;;;;;7.03;100.00;103563.19;5093963;28;20088;-47
2023/12/17 08:11:13;;;;;;;0.20;0.20;;;;;;;7.03;100.00;103563.19;5094331;28;20040;-50
2023/12/17 08:13:38;;;;;;;0.30;0.30;;;;;;;7.01;100.00;103568.19;5094377;28;20021;-48
2023/12/17 08:16:04;;;;;;;0.20;0.20;;;;;;;7.00;100.00;103565.47;5093968;28;20464;-45
2023/12/17 08:18:29;;;;;;;0.40;0.40;;;;;;;6.96;100.00;103561.75;5094350;28;20043;-45
2023/12/17 08:20:55;;;;;;;0.30;0.30;;;;;;;6.94;100.00;103565.81;5094290;28;20024;-47
2023/12/17 08:23:20;;;;;;;0.20;0.20;;;;;;;6.92;100.00;103568.25;5093700;28;20027;-49
2023/12/17 08:25:45;;;;;;;0.20;0.20;;;;;;;6.91;100.00;103563.00;5094551;28;20483;-47
2023/12/17 08:28:10;;;;;;;0.30;0.30;;;;;;;6.86;100.00;103565.16;5093670;28;20024;-50
2023/12/17 08:30:38;;;;;;;0.30;0.30;;;;;;;6.86;100.00;103575.41;5093880;28;20035;-45
2023/12/17 08:33:03;;;;;;;0.30;0.30;;;;;;;6.83;100.00;103570.00;5094350;28;20043;-48
2023/12/17 08:35:31;;;;;;;0.30;0.30;;;;;;;6.84;100.00;103576.94;5093519;28;20503;-49
2023/12/17 08:38:03;;;;;;;0.20;0.20;;;;;;;6.83;100.00;103575.13;5093574;28;20028;-48
2023/12/17 08:40:28;;;;;;;0.30;0.30;;;;;;;6.83;100.00;103576.78;5094013;28;20024;-50
2023/12/17 08:42:54;;;;;;;0.20;0.20;;;;;;;6.77;100.00;103569.47;5093971;28;20065;-49
2023/12/17 08:45:19;;;;;;;0.30;0.30;;;;;;;6.74;100.00;103569.19;5093084;28;20048;-49
2023/12/17 08:47:44;;;;;;;0.30;0.30;;;;;;;6.73;100.00;103567.41;5094005;28;20024;-48
2023/12/17 08:50:09;;;;;;;0.30;0.30;;;;;;;6.69;100.00;103573.03;5092922;28;20028;-44
2023/12/17 08:52:36;;;;;;;0.30;0.30;;;;;;;6.68;100.00;103578.91;5094070;28;20048;-48
2023/12/17 08:55:02;;;;;;;0.30;0.30;;;;;;;6.66;100.00;103567.59;5094022;28;20052;-49
2023/12/17 08:57:27;;;;;;;0.30;0.30;;;;;;;6.64;100.00;103582.84;5092747;28;20058;-48
2023/12/17 08:59:52;;;;;;;0.32;0.32;;;;;;;6.64;100.00;103581.97;5093856;28;20429;-49
2023/12/17 09:02:18;;;;;;;0.30;0.30;;;;;;;6.62;100.00;103574.09;5093397;28;20123;-49
2023/12/17 09:04:43;;;;;;;0.30;0.30;;;;;;;6.64;100.00;103580.28;5092660;28;20028;-47
2023/12/17 09:07:08;;;;;;;0.30;0.30;;;;;;;6.64;100.00;103576.84;5093225;28;20035;-50
2023/12/17 09:09:34;;;;;;;0.20;0.20;;;;;;;6.64;100.00;103570.03;5101099;28;20030;-49
2023/12/17 09:12:00;;;;;;;0.25;0.25;;;;;;;6.61;100.00;103572.31;5113474;28;20027;-49
2023/12/17 09:14:25;;;;;;;0.28;0.28;;;;;;;6.56;100.00;103565.88;5113501;28;20532;-48
2023/12/17 09:16:50;;;;;;;0.30;0.30;;;;;;;6.46;100.00;103561.59;5113588;28;20073;-47
2023/12/17 09:19:16;;;;;;;0.30;0.30;;;;;;;6.43;100.00;103562.22;5112790;28;20028;-47
2023/12/17 09:21:41;;;;;;;0.30;0.30;;;;;;;6.42;100.00;103572.31;5113433;28;20432;-48
2023/12/17 09:24:06;;;;;;;0.30;0.30;;;;;;;6.41;100.00;103567.97;5113641;28;20024;-48
2023/12/17 09:26:32;;;;;;;0.30;0.30;;;;;;;6.40;100.00;103578.97;5112988;28;20495;-50
2023/12/17 09:28:57;;;;;;;0.30;0.30;;;;;;;6.42;100.00;103569.75;5113903;28;20028;-49
2023/12/17 09:31:22;;;;;;;0.30;0.30;;;;;;;6.40;100.00;103576.41;5112788;28;20032;-45
2023/12/17 09:33:48;;;;;;;0.30;0.30;;;;;;;6.40;100.00;103582.44;5101713;28;20091;-47
2023/12/17 09:36:14;;;;;;;0.30;0.30;;;;;;;6.36;100.00;103574.31;5092802;28;20491;-44
2023/12/17 09:38:42;;;;;;;0.30;0.30;;;;;;;6.35;100.00;103577.63;5098067;28;20483;-48
2023/12/17 09:41:08;;;;;;;0.30;0.30;;;;;;;6.32;100.00;103577.38;5092705;28;20027;-47
2023/12/17 09:43:33;;;;;;;0.40;0.40;;;;;;;6.28;100.00;103573.63;5092688;28;20016;-47
2023/12/17 09:45:59;;;;;;;0.40;0.40;;;;;;;6.26;100.00;103581.19;5091218;28;20047;-50
2023/12/17 09:48:24;;;;;;;0.30;0.30;;;;;;;6.26;100.00;103577.69;5091416;28;20099;-48
2023/12/17 09:50:50;;;;;;;0.30;0.30;;;;;;;6.23;100.00;103583.44;5092957;28;20024;-47
2023/12/17 09:53:15;;;;;;;0.30;0.30;;;;;;;6.21;100.00;103584.97;5092385;28;20468;-46
2023/12/17 09:55:41;;;;;;;0.30;0.30;;;;;;;6.18;100.00;103584.69;5093172;28;20032;-46
2023/12/17 09:58:06;;;;;;;0.35;0.35;;;;;;;6.19;100.00;103585.59;5093136;28;20047;-46
2023/12/17 10:00:32;;;;;;;0.30;0.30;;;;;;;6.20;100.00;103583.16;5091846;28;20464;-45
2023/12/17 10:03:03;;;;;;;0.25;0.25;;;;;;;6.18;100.00;103583.78;5092003;28;20431;-49
2023/12/17 10:05:28;;;;;;;0.35;0.35;;;;;;;6.17;100.00;103582.91;5092655;28;20078;-46
2023/12/17 10:07:55;;;;;;;0.30;0.30;;;;;;;6.17;100.00;103577.78;5091495;28;20020;-46
2023/12/17 10:10:20;;;;;;;0.32;0.32;;;;;;;6.13;100.00;103580.78;5101316;28;20031;-44
2023/12/17 10:12:47;;;;;;;0.30;0.30;;;;;;;6.12;100.00;103583.22;5112844;28;20440;-44
2023/12/17 10:15:12;;;;;;;0.30;0.30;;;;;;;6.09;100.00;103581.28;5112241;28;20036;-46
2023/12/17 10:17:37;;;;;;;0.30;0.30;;;;;;;6.09;100.00;103581.28;5112764;28;20024;-49
2023/12/17 10:20:03;;;;;;;0.30;0.30;;;;;;;6.09;100.00;103588.97;5101142;28;20420;-47
2023/12/17 10:22:28;;;;;;;0.30;0.30;;;;;;;6.07;100.00;103585.38;5105949;28;20892;-47
2023/12/17 10:24:54;;;;;;;0.20;0.20;;;;;;;6.09;100.00;103599.22;5117209;28;20011;-48
2023/12/17 10:27:21;;;;;;;0.30;0.30;;;;;;;6.09;100.00;103599.22;5116546;28;20532;-48
2023/12/17 10:29:51;;;;;;;;;;;;;;;6.18;100.00;103594.94;5116979;28;20098;-48
2023/12/17 10:32:24;;;;;;;0.30;0.30;;;;;;;6.08;100.00;103590.63;5116617;28;19912;-49
2023/12/17 10:34:51;;;;;;;0.40;0.40;;;;;;;6.07;100.00;103593.06;5116991;28;20106;-49
2023/12/17 10:37:19;;;;;;;0.32;0.32;;;;;;;6.05;100.00;103571.53;5116352;28;20019;-45
2023/12/17 10:39:48;;;;;;;0.25;0.25;;;;;;;6.06;100.00;103578.44;5117087;28;20463;-50
2023/12/17 10:42:14;;;;;;;0.30;0.30;;;;;;;6.06;100.00;103576.78;5116441;28;20044;-50
2023/12/17 10:44:40;;;;;;;0.30;0.30;;;;;;;6.10;100.00;103576.28;5116355;28;20104;-51
2023/12/17 10:47:07;;;;;;;0.30;0.30;;;;;;;6.09;100.00;103566.84;5116899;28;20047;-47
2023/12/17 10:49:32;;;;;;;0.30;0.30;;;;;;;6.15;100.00;103563.94;5115728;28;20027;-47
2023/12/17 10:51:59;;;;;;;0.32;0.32;;;;;;;6.20;100.00;103561.78;5116645;28;20020;-46
2023/12/17 10:54:25;;;;;;;0.28;0.28;;;;;;;6.30;100.00;103555.84;5116386;28;20089;-48
2023/12/17 10:56:54;;;;;;;0.40;0.40;;;;;;;6.35;100.00;103565.75;5115722;28;20593;-48
2023/12/17 10:59:36;;;;;;;0.35;0.35;;;;;;;6.46;100.00;103565.81;5116189;28;20032;-45
2023/12/17 11:02:04;;;;;;;0.40;0.40;;;;;;;6.47;100.00;103560.84;5116456;28;20035;-46
2023/12/17 11:04:30;;;;;;;0.30;0.30;;;;;;;6.54;100.00;103549.47;5115734;28;20024;-49
2023/12/17 11:06:55;;;;;;;0.30;0.30;;;;;;;6.56;100.00;103541.16;5116213;28;20023;-50
2023/12/17 11:09:20;;;;;;;0.30;0.30;;;;;;;6.58;100.00;103541.28;5115805;28;20076;-48
2023/12/17 11:11:47;;;;;;;0.20;0.20;;;;;;;6.66;100.00;103539.41;5115744;28;20031;-46
2023/12/17 11:14:13;;;;;;;0.30;0.30;;;;;;;6.79;100.00;103536.25;5115928;28;20024;-49
2023/12/17 11:16:38;;;;;;;0.30;0.30;;;;;;;7.00;100.00;103529.59;5116068;28;20486;-47
2023/12/17 11:19:04;;;;;;;0.30;0.30;;;;;;;7.06;100.00;103520.75;5115618;28;20015;-49